Terminal Aerodrome Forecast
Issued by NWS Sterling, VA

Current Version | Previous Version | Graphics & Text | Print | Product List | Glossary On
Versions: 1 2 3 4 5 6 7 8 9 10 11 12 13 14 15 16 17 18 19 20 21
363
FTUS41 KLWX 221504 AAA
TAFDCA
TAF AMD
KDCA 221504Z 2215/2312 18006KT P6SM BKN120
     FM230300 19005KT P6SM SCT015
     FM230600 19004KT 5SM BR BKN015=

USA.gov is the U.S. government's official web portal to all federal, state and local government web resources and services.